sensor_id;sensor_type;location;lat;lon;timestamp;P1;durP1;ratioP1;P2;durP2;ratioP2
15363;SDS011;7781;49.690;6.472;2024-03-25T00:01:39;5.30;;;2.30;;
15363;SDS011;7781;49.690;6.472;2024-03-25T00:04:07;11.47;;;2.90;;
15363;SDS011;7781;49.690;6.472;2024-03-25T00:06:35;3.50;;;1.90;;
15363;SDS011;7781;49.690;6.472;2024-03-25T00:09:05;3.40;;;2.20;;
15363;SDS011;7781;49.690;6.472;2024-03-25T00:11:34;6.50;;;2.13;;
15363;SDS011;7781;49.690;6.472;2024-03-25T00:14:02;3.83;;;1.73;;
15363;SDS011;7781;49.690;6.472;2024-03-25T00:16:31;6.90;;;2.53;;
15363;SDS011;7781;49.690;6.472;2024-03-25T00:19:00;4.70;;;2.17;;
15363;SDS011;7781;49.690;6.472;2024-03-25T00:21:29;11.60;;;2.40;;
15363;SDS011;7781;49.690;6.472;2024-03-25T00:23:56;3.90;;;2.10;;
15363;SDS011;7781;49.690;6.472;2024-03-25T00:26:25;9.63;;;2.20;;
15363;SDS011;7781;49.690;6.472;2024-03-25T00:28:52;4.17;;;2.13;;
15363;SDS011;7781;49.690;6.472;2024-03-25T00:31:19;3.57;;;1.83;;
15363;SDS011;7781;49.690;6.472;2024-03-25T00:33:47;5.90;;;2.13;;
15363;SDS011;7781;49.690;6.472;2024-03-25T00:36:14;1.70;;;1.60;;
15363;SDS011;7781;49.690;6.472;2024-03-25T00:38:42;1.90;;;1.53;;
15363;SDS011;7781;49.690;6.472;2024-03-25T00:41:09;4.87;;;2.40;;
15363;SDS011;7781;49.690;6.472;2024-03-25T00:43:37;6.63;;;2.50;;
15363;SDS011;7781;49.690;6.472;2024-03-25T00:46:03;6.40;;;2.30;;
15363;SDS011;7781;49.690;6.472;2024-03-25T00:48:32;3.47;;;2.13;;
15363;SDS011;7781;49.690;6.472;2024-03-25T00:51:00;3.33;;;2.07;;
15363;SDS011;7781;49.690;6.472;2024-03-25T00:53:28;2.90;;;1.70;;
15363;SDS011;7781;49.690;6.472;2024-03-25T00:55:56;3.67;;;2.10;;
15363;SDS011;7781;49.690;6.472;2024-03-25T00:58:23;5.00;;;1.57;;
15363;SDS011;7781;49.690;6.472;2024-03-25T01:00:49;4.17;;;1.93;;
15363;SDS011;7781;49.690;6.472;2024-03-25T01:03:17;3.27;;;1.93;;
15363;SDS011;7781;49.690;6.472;2024-03-25T01:05:44;7.23;;;2.60;;
15363;SDS011;7781;49.690;6.472;2024-03-25T01:08:12;8.33;;;2.53;;
15363;SDS011;7781;49.690;6.472;2024-03-25T01:10:40;3.00;;;2.20;;
15363;SDS011;7781;49.690;6.472;2024-03-25T01:13:09;3.30;;;2.03;;
15363;SDS011;7781;49.690;6.472;2024-03-25T01:15:35;3.70;;;1.87;;
15363;SDS011;7781;49.690;6.472;2024-03-25T01:18:04;4.00;;;2.23;;
15363;SDS011;7781;49.690;6.472;2024-03-25T01:20:31;5.23;;;2.17;;
15363;SDS011;7781;49.690;6.472;2024-03-25T01:22:58;3.13;;;2.40;;
15363;SDS011;7781;49.690;6.472;2024-03-25T01:25:24;5.50;;;2.07;;
15363;SDS011;7781;49.690;6.472;2024-03-25T01:27:52;5.60;;;2.70;;
15363;SDS011;7781;49.690;6.472;2024-03-25T01:30:21;3.73;;;2.17;;
15363;SDS011;7781;49.690;6.472;2024-03-25T01:32:49;2.33;;;2.13;;
15363;SDS011;7781;49.690;6.472;2024-03-25T01:35:15;7.40;;;2.23;;
15363;SDS011;7781;49.690;6.472;2024-03-25T01:37:43;5.73;;;2.40;;
15363;SDS011;7781;49.690;6.472;2024-03-25T01:40:11;3.43;;;2.17;;
15363;SDS011;7781;49.690;6.472;2024-03-25T01:42:40;2.60;;;2.20;;
15363;SDS011;7781;49.690;6.472;2024-03-25T01:45:08;4.17;;;2.07;;
15363;SDS011;7781;49.690;6.472;2024-03-25T01:47:40;5.33;;;2.73;;
15363;SDS011;7781;49.690;6.472;2024-03-25T01:50:08;5.10;;;2.27;;
15363;SDS011;7781;49.690;6.472;2024-03-25T01:52:37;3.53;;;2.20;;
15363;SDS011;7781;49.690;6.472;2024-03-25T01:55:06;3.47;;;1.77;;
15363;SDS011;7781;49.690;6.472;2024-03-25T01:57:38;2.93;;;2.10;;
15363;SDS011;7781;49.690;6.472;2024-03-25T02:00:05;2.70;;;2.00;;
15363;SDS011;7781;49.690;6.472;2024-03-25T02:02:34;4.90;;;1.93;;
15363;SDS011;7781;49.690;6.472;2024-03-25T02:05:06;7.60;;;2.20;;
15363;SDS011;7781;49.690;6.472;2024-03-25T02:07:34;5.10;;;2.50;;
15363;SDS011;7781;49.690;6.472;2024-03-25T02:10:03;7.00;;;2.50;;
15363;SDS011;7781;49.690;6.472;2024-03-25T02:12:31;4.07;;;2.03;;
15363;SDS011;7781;49.690;6.472;2024-03-25T02:14:59;1.73;;;1.50;;
15363;SDS011;7781;49.690;6.472;2024-03-25T02:17:27;2.37;;;1.90;;
15363;SDS011;7781;49.690;6.472;2024-03-25T02:19:53;5.33;;;2.47;;
15363;SDS011;7781;49.690;6.472;2024-03-25T02:22:23;5.47;;;2.10;;
15363;SDS011;7781;49.690;6.472;2024-03-25T02:24:50;4.57;;;2.17;;
15363;SDS011;7781;49.690;6.472;2024-03-25T02:27:22;2.63;;;2.20;;
15363;SDS011;7781;49.690;6.472;2024-03-25T02:29:49;9.47;;;2.10;;
15363;SDS011;7781;49.690;6.472;2024-03-25T02:32:17;3.67;;;2.10;;
15363;SDS011;7781;49.690;6.472;2024-03-25T02:34:44;12.57;;;2.33;;
15363;SDS011;7781;49.690;6.472;2024-03-25T02:37:14;3.00;;;1.63;;
15363;SDS011;7781;49.690;6.472;2024-03-25T02:39:42;4.30;;;2.00;;
15363;SDS011;7781;49.690;6.472;2024-03-25T02:42:10;5.67;;;2.30;;
15363;SDS011;7781;49.690;6.472;2024-03-25T02:44:38;6.57;;;2.50;;
15363;SDS011;7781;49.690;6.472;2024-03-25T02:47:09;4.60;;;2.53;;
15363;SDS011;7781;49.690;6.472;2024-03-25T02:49:37;4.03;;;2.57;;
15363;SDS011;7781;49.690;6.472;2024-03-25T02:52:05;2.30;;;1.70;;
15363;SDS011;7781;49.690;6.472;2024-03-25T02:54:32;5.63;;;2.17;;
15363;SDS011;7781;49.690;6.472;2024-03-25T02:57:01;4.70;;;2.10;;
15363;SDS011;7781;49.690;6.472;2024-03-25T02:59:28;2.43;;;1.83;;
15363;SDS011;7781;49.690;6.472;2024-03-25T03:01:58;5.83;;;2.10;;
15363;SDS011;7781;49.690;6.472;2024-03-25T03:04:24;5.13;;;2.60;;
15363;SDS011;7781;49.690;6.472;2024-03-25T03:06:52;2.30;;;2.10;;
15363;SDS011;7781;49.690;6.472;2024-03-25T03:09:19;4.07;;;2.60;;
15363;SDS011;7781;49.690;6.472;2024-03-25T03:11:47;3.97;;;2.40;;
15363;SDS011;7781;49.690;6.472;2024-03-25T03:14:13;6.30;;;1.90;;
15363;SDS011;7781;49.690;6.472;2024-03-25T03:16:41;3.60;;;2.07;;
15363;SDS011;7781;49.690;6.472;2024-03-25T03:19:09;4.63;;;2.30;;
15363;SDS011;7781;49.690;6.472;2024-03-25T03:21:36;5.20;;;2.67;;
15363;SDS011;7781;49.690;6.472;2024-03-25T03:24:03;4.27;;;2.03;;
15363;SDS011;7781;49.690;6.472;2024-03-25T03:26:32;2.53;;;2.20;;
15363;SDS011;7781;49.690;6.472;2024-03-25T03:28:59;5.00;;;2.50;;
15363;SDS011;7781;49.690;6.472;2024-03-25T03:31:26;4.20;;;2.47;;
15363;SDS011;7781;49.690;6.472;2024-03-25T03:33:54;4.67;;;2.00;;
15363;SDS011;7781;49.690;6.472;2024-03-25T03:36:23;3.47;;;2.07;;
15363;SDS011;7781;49.690;6.472;2024-03-25T03:38:50;15.90;;;3.47;;
15363;SDS011;7781;49.690;6.472;2024-03-25T03:41:18;13.20;;;2.53;;
15363;SDS011;7781;49.690;6.472;2024-03-25T03:43:45;4.93;;;2.30;;
15363;SDS011;7781;49.690;6.472;2024-03-25T03:46:12;3.03;;;2.33;;
15363;SDS011;7781;49.690;6.472;2024-03-25T03:48:39;3.73;;;2.07;;
15363;SDS011;7781;49.690;6.472;2024-03-25T03:51:07;5.20;;;2.67;;
15363;SDS011;7781;49.690;6.472;2024-03-25T03:53:35;3.93;;;2.47;;
15363;SDS011;7781;49.690;6.472;2024-03-25T03:56:04;5.67;;;2.60;;
15363;SDS011;7781;49.690;6.472;2024-03-25T03:58:32;5.07;;;2.73;;
15363;SDS011;7781;49.690;6.472;2024-03-25T04:01:00;3.67;;;2.40;;
15363;SDS011;7781;49.690;6.472;2024-03-25T04:03:28;5.67;;;2.50;;
15363;SDS011;7781;49.690;6.472;2024-03-25T04:05:55;4.90;;;2.60;;
15363;SDS011;7781;49.690;6.472;2024-03-25T04:08:22;8.30;;;3.10;;
15363;SDS011;7781;49.690;6.472;2024-03-25T04:10:51;4.40;;;2.70;;
15363;SDS011;7781;49.690;6.472;2024-03-25T04:13:18;5.33;;;2.70;;
15363;SDS011;7781;49.690;6.472;2024-03-25T04:15:45;5.13;;;3.50;;
15363;SDS011;7781;49.690;6.472;2024-03-25T04:18:12;3.33;;;1.90;;
15363;SDS011;7781;49.690;6.472;2024-03-25T04:20:40;8.37;;;2.97;;
15363;SDS011;7781;49.690;6.472;2024-03-25T04:23:08;5.90;;;2.60;;
15363;SDS011;7781;49.690;6.472;2024-03-25T04:25:35;4.77;;;2.50;;
15363;SDS011;7781;49.690;6.472;2024-03-25T04:28:06;6.43;;;2.60;;
15363;SDS011;7781;49.690;6.472;2024-03-25T04:30:32;5.00;;;2.97;;
15363;SDS011;7781;49.690;6.472;2024-03-25T04:33:03;3.83;;;2.40;;
15363;SDS011;7781;49.690;6.472;2024-03-25T04:35:30;7.20;;;3.00;;
15363;SDS011;7781;49.690;6.472;2024-03-25T04:37:57;4.07;;;3.20;;
15363;SDS011;7781;49.690;6.472;2024-03-25T04:40:24;7.20;;;3.00;;
15363;SDS011;7781;49.690;6.472;2024-03-25T04:42:51;5.50;;;2.93;;
15363;SDS011;7781;49.690;6.472;2024-03-25T04:45:20;6.27;;;2.80;;
15363;SDS011;7781;49.690;6.472;2024-03-25T04:47:48;9.10;;;3.17;;
15363;SDS011;7781;49.690;6.472;2024-03-25T04:50:15;4.17;;;3.00;;
15363;SDS011;7781;49.690;6.472;2024-03-25T04:52:43;7.80;;;2.87;;
15363;SDS011;7781;49.690;6.472;2024-03-25T04:55:10;4.87;;;2.60;;
15363;SDS011;7781;49.690;6.472;2024-03-25T04:57:36;4.87;;;2.90;;
15363;SDS011;7781;49.690;6.472;2024-03-25T05:00:06;5.53;;;2.50;;
15363;SDS011;7781;49.690;6.472;2024-03-25T05:02:36;6.87;;;2.73;;
15363;SDS011;7781;49.690;6.472;2024-03-25T05:05:04;10.33;;;3.50;;
15363;SDS011;7781;49.690;6.472;2024-03-25T05:07:31;4.50;;;2.87;;
15363;SDS011;7781;49.690;6.472;2024-03-25T05:09:57;10.70;;;3.60;;
15363;SDS011;7781;49.690;6.472;2024-03-25T05:12:24;4.93;;;2.77;;
15363;SDS011;7781;49.690;6.472;2024-03-25T05:14:51;14.53;;;3.47;;
15363;SDS011;7781;49.690;6.472;2024-03-25T05:17:19;6.63;;;2.63;;
15363;SDS011;7781;49.690;6.472;2024-03-25T05:19:48;6.03;;;2.77;;
15363;SDS011;7781;49.690;6.472;2024-03-25T05:22:15;6.93;;;3.03;;
15363;SDS011;7781;49.690;6.472;2024-03-25T05:24:41;5.50;;;3.13;;
15363;SDS011;7781;49.690;6.472;2024-03-25T05:27:08;7.33;;;2.87;;
15363;SDS011;7781;49.690;6.472;2024-03-25T05:29:35;8.90;;;2.87;;
15363;SDS011;7781;49.690;6.472;2024-03-25T05:32:02;8.80;;;3.20;;
15363;SDS011;7781;49.690;6.472;2024-03-25T05:34:29;3.87;;;2.97;;
15363;SDS011;7781;49.690;6.472;2024-03-25T05:36:57;6.30;;;2.97;;
15363;SDS011;7781;49.690;6.472;2024-03-25T05:39:24;4.63;;;2.97;;
15363;SDS011;7781;49.690;6.472;2024-03-25T05:41:51;4.17;;;2.70;;
15363;SDS011;7781;49.690;6.472;2024-03-25T05:44:17;4.43;;;2.60;;
15363;SDS011;7781;49.690;6.472;2024-03-25T05:46:44;4.00;;;2.90;;
15363;SDS011;7781;49.690;6.472;2024-03-25T05:49:11;3.53;;;2.80;;
15363;SDS011;7781;49.690;6.472;2024-03-25T05:51:37;6.27;;;3.20;;
15363;SDS011;7781;49.690;6.472;2024-03-25T05:54:07;4.63;;;2.97;;
15363;SDS011;7781;49.690;6.472;2024-03-25T05:56:33;8.30;;;3.00;;
15363;SDS011;7781;49.690;6.472;2024-03-25T05:59:00;5.27;;;3.17;;
15363;SDS011;7781;49.690;6.472;2024-03-25T06:01:26;6.03;;;2.83;;
15363;SDS011;7781;49.690;6.472;2024-03-25T06:03:55;8.90;;;3.07;;
15363;SDS011;7781;49.690;6.472;2024-03-25T06:06:26;7.27;;;2.80;;
15363;SDS011;7781;49.690;6.472;2024-03-25T06:08:54;3.73;;;2.77;;
15363;SDS011;7781;49.690;6.472;2024-03-25T06:11:24;5.50;;;2.93;;
15363;SDS011;7781;49.690;6.472;2024-03-25T06:13:51;5.43;;;3.03;;
15363;SDS011;7781;49.690;6.472;2024-03-25T06:16:18;4.40;;;3.33;;
15363;SDS011;7781;49.690;6.472;2024-03-25T06:18:45;6.60;;;3.33;;
15363;SDS011;7781;49.690;6.472;2024-03-25T06:21:12;4.10;;;3.10;;
15363;SDS011;7781;49.690;6.472;2024-03-25T06:23:40;15.57;;;3.10;;
15363;SDS011;7781;49.690;6.472;2024-03-25T06:26:07;7.13;;;3.60;;
15363;SDS011;7781;49.690;6.472;2024-03-25T06:28:40;5.83;;;3.13;;
15363;SDS011;7781;49.690;6.472;2024-03-25T06:31:07;4.70;;;2.93;;
15363;SDS011;7781;49.690;6.472;2024-03-25T06:33:52;12.60;;;3.40;;
15363;SDS011;7781;49.690;6.472;2024-03-25T06:36:37;6.00;;;3.40;;
15363;SDS011;7781;49.690;6.472;2024-03-25T06:39:04;5.10;;;3.20;;
15363;SDS011;7781;49.690;6.472;2024-03-25T06:41:30;5.53;;;3.57;;
15363;SDS011;7781;49.690;6.472;2024-03-25T06:44:02;5.53;;;3.27;;
15363;SDS011;7781;49.690;6.472;2024-03-25T06:46:29;6.10;;;3.00;;
15363;SDS011;7781;49.690;6.472;2024-03-25T06:49:00;11.03;;;3.70;;
15363;SDS011;7781;49.690;6.472;2024-03-25T06:51:27;4.83;;;3.47;;
15363;SDS011;7781;49.690;6.472;2024-03-25T06:53:54;5.60;;;3.10;;
15363;SDS011;7781;49.690;6.472;2024-03-25T06:56:21;5.17;;;2.83;;
15363;SDS011;7781;49.690;6.472;2024-03-25T06:58:48;8.60;;;4.17;;
15363;SDS011;7781;49.690;6.472;2024-03-25T07:01:20;5.57;;;4.27;;
15363;SDS011;7781;49.690;6.472;2024-03-25T07:03:51;7.90;;;4.80;;
15363;SDS011;7781;49.690;6.472;2024-03-25T07:06:21;5.97;;;4.07;;
15363;SDS011;7781;49.690;6.472;2024-03-25T07:08:48;7.70;;;4.43;;
15363;SDS011;7781;49.690;6.472;2024-03-25T07:11:15;8.70;;;4.47;;
15363;SDS011;7781;49.690;6.472;2024-03-25T07:13:42;12.90;;;5.73;;
15363;SDS011;7781;49.690;6.472;2024-03-25T07:16:10;7.93;;;4.87;;
15363;SDS011;7781;49.690;6.472;2024-03-25T07:18:40;8.93;;;4.00;;
15363;SDS011;7781;49.690;6.472;2024-03-25T07:21:08;6.70;;;3.70;;
15363;SDS011;7781;49.690;6.472;2024-03-25T07:23:35;5.77;;;3.10;;
15363;SDS011;7781;49.690;6.472;2024-03-25T07:26:01;5.93;;;3.40;;
15363;SDS011;7781;49.690;6.472;2024-03-25T07:28:30;6.80;;;3.17;;
15363;SDS011;7781;49.690;6.472;2024-03-25T07:30:57;4.70;;;3.10;;
15363;SDS011;7781;49.690;6.472;2024-03-25T07:33:24;7.00;;;3.60;;
15363;SDS011;7781;49.690;6.472;2024-03-25T07:35:55;6.93;;;3.47;;
15363;SDS011;7781;49.690;6.472;2024-03-25T07:38:22;5.67;;;3.67;;
15363;SDS011;7781;49.690;6.472;2024-03-25T07:40:50;4.60;;;3.33;;
15363;SDS011;7781;49.690;6.472;2024-03-25T07:43:17;6.70;;;3.33;;
15363;SDS011;7781;49.690;6.472;2024-03-25T07:45:45;10.60;;;3.40;;
15363;SDS011;7781;49.690;6.472;2024-03-25T07:48:12;7.93;;;4.00;;
15363;SDS011;7781;49.690;6.472;2024-03-25T07:50:38;9.20;;;3.77;;
15363;SDS011;7781;49.690;6.472;2024-03-25T07:53:07;4.47;;;3.20;;
15363;SDS011;7781;49.690;6.472;2024-03-25T07:55:34;5.73;;;3.60;;
15363;SDS011;7781;49.690;6.472;2024-03-25T07:58:01;4.77;;;3.77;;
15363;SDS011;7781;49.690;6.472;2024-03-25T08:00:28;7.80;;;3.60;;
15363;SDS011;7781;49.690;6.472;2024-03-25T08:02:55;8.47;;;3.90;;
15363;SDS011;7781;49.690;6.472;2024-03-25T08:05:22;9.97;;;3.53;;
15363;SDS011;7781;49.690;6.472;2024-03-25T08:07:49;7.80;;;4.90;;
15363;SDS011;7781;49.690;6.472;2024-03-25T08:10:17;5.83;;;3.80;;
15363;SDS011;7781;49.690;6.472;2024-03-25T08:12:43;7.30;;;3.57;;
15363;SDS011;7781;49.690;6.472;2024-03-25T08:15:10;5.33;;;3.47;;
15363;SDS011;7781;49.690;6.472;2024-03-25T08:17:37;9.00;;;4.40;;
15363;SDS011;7781;49.690;6.472;2024-03-25T08:20:04;10.60;;;4.73;;
15363;SDS011;7781;49.690;6.472;2024-03-25T08:22:32;12.70;;;4.33;;
15363;SDS011;7781;49.690;6.472;2024-03-25T08:24:59;8.23;;;4.23;;
15363;SDS011;7781;49.690;6.472;2024-03-25T08:27:30;12.53;;;4.00;;
15363;SDS011;7781;49.690;6.472;2024-03-25T08:29:56;8.20;;;4.50;;
15363;SDS011;7781;49.690;6.472;2024-03-25T08:32:28;8.70;;;4.50;;
15363;SDS011;7781;49.690;6.472;2024-03-25T08:34:56;9.70;;;4.07;;
15363;SDS011;7781;49.690;6.472;2024-03-25T08:37:26;11.10;;;4.77;;
15363;SDS011;7781;49.690;6.472;2024-03-25T08:39:56;6.07;;;3.50;;
15363;SDS011;7781;49.690;6.472;2024-03-25T08:42:23;13.67;;;4.57;;
15363;SDS011;7781;49.690;6.472;2024-03-25T08:44:51;8.20;;;4.37;;
15363;SDS011;7781;49.690;6.472;2024-03-25T08:47:18;12.60;;;4.67;;
15363;SDS011;7781;49.690;6.472;2024-03-25T08:49:44;10.37;;;3.80;;
15363;SDS011;7781;49.690;6.472;2024-03-25T08:52:11;11.83;;;4.07;;
15363;SDS011;7781;49.690;6.472;2024-03-25T08:54:38;11.67;;;3.50;;
15363;SDS011;7781;49.690;6.472;2024-03-25T08:57:05;9.00;;;3.87;;
15363;SDS011;7781;49.690;6.472;2024-03-25T08:59:32;14.37;;;4.40;;
15363;SDS011;7781;49.690;6.472;2024-03-25T09:02:02;8.63;;;3.80;;
15363;SDS011;7781;49.690;6.472;2024-03-25T09:04:28;5.63;;;3.90;;
15363;SDS011;7781;49.690;6.472;2024-03-25T09:06:56;13.00;;;4.83;;
15363;SDS011;7781;49.690;6.472;2024-03-25T09:09:23;8.03;;;4.10;;
15363;SDS011;7781;49.690;6.472;2024-03-25T09:12:08;7.60;;;4.77;;
15363;SDS011;7781;49.690;6.472;2024-03-25T09:14:35;9.60;;;4.27;;
15363;SDS011;7781;49.690;6.472;2024-03-25T09:17:03;14.00;;;4.63;;
15363;SDS011;7781;49.690;6.472;2024-03-25T09:19:30;7.80;;;4.30;;
15363;SDS011;7781;49.690;6.472;2024-03-25T09:21:57;6.97;;;4.60;;
15363;SDS011;7781;49.690;6.472;2024-03-25T09:24:25;11.67;;;5.00;;
15363;SDS011;7781;49.690;6.472;2024-03-25T09:26:51;8.83;;;4.17;;
15363;SDS011;7781;49.690;6.472;2024-03-25T09:29:17;16.73;;;4.23;;
15363;SDS011;7781;49.690;6.472;2024-03-25T09:31:45;12.10;;;4.50;;
15363;SDS011;7781;49.690;6.472;2024-03-25T09:34:14;6.37;;;4.30;;
15363;SDS011;7781;49.690;6.472;2024-03-25T09:36:40;12.67;;;4.03;;
15363;SDS011;7781;49.690;6.472;2024-03-25T09:39:07;11.27;;;4.50;;
15363;SDS011;7781;49.690;6.472;2024-03-25T09:41:35;6.63;;;3.77;;
15363;SDS011;7781;49.690;6.472;2024-03-25T09:44:02;6.13;;;4.03;;
15363;SDS011;7781;49.690;6.472;2024-03-25T09:46:31;10.30;;;3.77;;
15363;SDS011;7781;49.690;6.472;2024-03-25T09:48:59;8.60;;;3.60;;
15363;SDS011;7781;49.690;6.472;2024-03-25T09:51:30;8.00;;;3.33;;
15363;SDS011;7781;49.690;6.472;2024-03-25T09:53:56;6.97;;;3.50;;
15363;SDS011;7781;49.690;6.472;2024-03-25T09:56:23;10.00;;;3.80;;
15363;SDS011;7781;49.690;6.472;2024-03-25T09:58:50;9.13;;;3.50;;
15363;SDS011;7781;49.690;6.472;2024-03-25T10:01:17;5.53;;;3.60;;
15363;SDS011;7781;49.690;6.472;2024-03-25T10:03:44;7.10;;;3.30;;
15363;SDS011;7781;49.690;6.472;2024-03-25T10:06:11;3.90;;;2.90;;
15363;SDS011;7781;49.690;6.472;2024-03-25T10:08:39;7.33;;;3.50;;
15363;SDS011;7781;49.690;6.472;2024-03-25T10:11:06;4.77;;;2.80;;
15363;SDS011;7781;49.690;6.472;2024-03-25T10:13:32;10.97;;;2.60;;
15363;SDS011;7781;49.690;6.472;2024-03-25T10:15:59;10.33;;;3.50;;
15363;SDS011;7781;49.690;6.472;2024-03-25T10:18:26;7.30;;;2.80;;
15363;SDS011;7781;49.690;6.472;2024-03-25T10:20:54;7.60;;;3.40;;
15363;SDS011;7781;49.690;6.472;2024-03-25T10:23:23;7.90;;;3.20;;
15363;SDS011;7781;49.690;6.472;2024-03-25T10:25:52;9.07;;;2.73;;
15363;SDS011;7781;49.690;6.472;2024-03-25T10:28:23;8.63;;;2.77;;
15363;SDS011;7781;49.690;6.472;2024-03-25T10:31:04;10.43;;;3.00;;
15363;SDS011;7781;49.690;6.472;2024-03-25T10:33:31;4.10;;;2.90;;
15363;SDS011;7781;49.690;6.472;2024-03-25T10:35:58;8.30;;;3.03;;
15363;SDS011;7781;49.690;6.472;2024-03-25T10:38:26;12.70;;;2.50;;
15363;SDS011;7781;49.690;6.472;2024-03-25T10:49:59;6.10;;;2.50;;
15363;SDS011;7781;49.690;6.472;2024-03-25T10:52:31;7.80;;;3.50;;
15363;SDS011;7781;49.690;6.472;2024-03-25T10:59:32;6.07;;;3.20;;
15363;SDS011;7781;49.690;6.472;2024-03-25T11:02:01;10.40;;;2.93;;
15363;SDS011;7781;49.690;6.472;2024-03-25T11:04:29;5.37;;;3.27;;
15363;SDS011;7781;49.690;6.472;2024-03-25T11:07:07;7.47;;;3.33;;
15363;SDS011;7781;49.690;6.472;2024-03-25T11:14:14;8.70;;;3.93;;
15363;SDS011;7781;49.690;6.472;2024-03-25T11:16:41;4.90;;;3.20;;
15363;SDS011;7781;49.690;6.472;2024-03-25T11:22:15;14.43;;;3.40;;
15363;SDS011;7781;49.690;6.472;2024-03-25T11:24:43;6.33;;;3.30;;
15363;SDS011;7781;49.690;6.472;2024-03-25T11:27:09;7.80;;;3.60;;
15363;SDS011;7781;49.690;6.472;2024-03-25T11:29:36;7.20;;;3.30;;
15363;SDS011;7781;49.690;6.472;2024-03-25T11:41:33;5.37;;;2.70;;
15363;SDS011;7781;49.690;6.472;2024-03-25T11:43:59;4.70;;;2.40;;
15363;SDS011;7781;49.690;6.472;2024-03-25T11:46:27;7.50;;;2.67;;
15363;SDS011;7781;49.690;6.472;2024-03-25T11:48:54;6.43;;;3.27;;
15363;SDS011;7781;49.690;6.472;2024-03-25T11:51:22;4.00;;;2.63;;
15363;SDS011;7781;49.690;6.472;2024-03-25T11:53:50;5.60;;;3.07;;
15363;SDS011;7781;49.690;6.472;2024-03-25T11:56:16;8.53;;;2.70;;
15363;SDS011;7781;49.690;6.472;2024-03-25T11:58:46;4.80;;;2.10;;
15363;SDS011;7781;49.690;6.472;2024-03-25T12:01:13;4.03;;;2.70;;
15363;SDS011;7781;49.690;6.472;2024-03-25T12:03:42;3.00;;;2.17;;
15363;SDS011;7781;49.690;6.472;2024-03-25T12:06:09;4.20;;;2.27;;
15363;SDS011;7781;49.690;6.472;2024-03-25T12:08:36;3.60;;;1.80;;
15363;SDS011;7781;49.690;6.472;2024-03-25T12:11:05;3.70;;;1.80;;
15363;SDS011;7781;49.690;6.472;2024-03-25T12:13:43;4.50;;;2.17;;
15363;SDS011;7781;49.690;6.472;2024-03-25T12:16:11;3.93;;;2.40;;
15363;SDS011;7781;49.690;6.472;2024-03-25T12:18:40;6.37;;;2.43;;
15363;SDS011;7781;49.690;6.472;2024-03-25T12:21:07;4.40;;;2.30;;
15363;SDS011;7781;49.690;6.472;2024-03-25T12:23:36;6.70;;;2.10;;
15363;SDS011;7781;49.690;6.472;2024-03-25T12:26:03;5.37;;;2.00;;
15363;SDS011;7781;49.690;6.472;2024-03-25T12:28:31;4.70;;;2.37;;
15363;SDS011;7781;49.690;6.472;2024-03-25T12:30:59;3.83;;;1.93;;
15363;SDS011;7781;49.690;6.472;2024-03-25T12:33:26;6.07;;;2.50;;
15363;SDS011;7781;49.690;6.472;2024-03-25T12:35:54;5.93;;;2.17;;
15363;SDS011;7781;49.690;6.472;2024-03-25T12:38:22;4.77;;;1.90;;
15363;SDS011;7781;49.690;6.472;2024-03-25T12:40:51;8.50;;;2.53;;
15363;SDS011;7781;49.690;6.472;2024-03-25T12:43:20;4.10;;;2.10;;
15363;SDS011;7781;49.690;6.472;2024-03-25T12:45:48;3.53;;;2.30;;
15363;SDS011;7781;49.690;6.472;2024-03-25T12:48:16;6.13;;;2.00;;
15363;SDS011;7781;49.690;6.472;2024-03-25T12:50:42;6.17;;;2.20;;
15363;SDS011;7781;49.690;6.472;2024-03-25T12:53:16;4.60;;;1.93;;
15363;SDS011;7781;49.690;6.472;2024-03-25T12:55:45;2.17;;;1.90;;
15363;SDS011;7781;49.690;6.472;2024-03-25T12:58:14;4.97;;;2.30;;
15363;SDS011;7781;49.690;6.472;2024-03-25T13:00:42;4.20;;;1.70;;
15363;SDS011;7781;49.690;6.472;2024-03-25T13:03:09;6.80;;;1.90;;
15363;SDS011;7781;49.690;6.472;2024-03-25T13:05:38;6.47;;;2.30;;
15363;SDS011;7781;49.690;6.472;2024-03-25T13:08:05;5.23;;;1.83;;
15363;SDS011;7781;49.690;6.472;2024-03-25T13:10:33;4.10;;;2.10;;
15363;SDS011;7781;49.690;6.472;2024-03-25T13:13:00;3.80;;;1.70;;
15363;SDS011;7781;49.690;6.472;2024-03-25T13:15:27;3.27;;;1.80;;
15363;SDS011;7781;49.690;6.472;2024-03-25T13:17:54;4.00;;;1.87;;
15363;SDS011;7781;49.690;6.472;2024-03-25T13:20:23;4.80;;;2.53;;
15363;SDS011;7781;49.690;6.472;2024-03-25T13:22:53;3.57;;;1.80;;
15363;SDS011;7781;49.690;6.472;2024-03-25T13:25:21;3.23;;;1.67;;
15363;SDS011;7781;49.690;6.472;2024-03-25T13:27:49;4.03;;;2.10;;
15363;SDS011;7781;49.690;6.472;2024-03-25T13:30:17;3.90;;;1.80;;
15363;SDS011;7781;49.690;6.472;2024-03-25T13:32:44;3.13;;;1.93;;
15363;SDS011;7781;49.690;6.472;2024-03-25T13:35:11;6.00;;;1.87;;
15363;SDS011;7781;49.690;6.472;2024-03-25T13:37:37;4.73;;;1.90;;
15363;SDS011;7781;49.690;6.472;2024-03-25T13:40:06;3.63;;;1.63;;
15363;SDS011;7781;49.690;6.472;2024-03-25T13:42:35;3.67;;;1.90;;
15363;SDS011;7781;49.690;6.472;2024-03-25T13:45:01;2.80;;;1.87;;
15363;SDS011;7781;49.690;6.472;2024-03-25T13:47:29;4.77;;;1.90;;
15363;SDS011;7781;49.690;6.472;2024-03-25T13:50:02;4.07;;;2.10;;
15363;SDS011;7781;49.690;6.472;2024-03-25T13:52:32;3.23;;;1.83;;
15363;SDS011;7781;49.690;6.472;2024-03-25T13:54:58;3.40;;;2.10;;
15363;SDS011;7781;49.690;6.472;2024-03-25T13:57:26;6.10;;;1.87;;
15363;SDS011;7781;49.690;6.472;2024-03-25T13:59:53;5.73;;;2.00;;
15363;SDS011;7781;49.690;6.472;2024-03-25T14:02:20;2.47;;;1.80;;
15363;SDS011;7781;49.690;6.472;2024-03-25T14:04:47;4.23;;;1.93;;
15363;SDS011;7781;49.690;6.472;2024-03-25T14:07:13;6.80;;;2.47;;
15363;SDS011;7781;49.690;6.472;2024-03-25T14:09:40;2.63;;;1.90;;
15363;SDS011;7781;49.690;6.472;2024-03-25T14:12:09;7.30;;;1.87;;
15363;SDS011;7781;49.690;6.472;2024-03-25T14:14:38;2.27;;;1.70;;
15363;SDS011;7781;49.690;6.472;2024-03-25T14:17:04;2.63;;;1.70;;
15363;SDS011;7781;49.690;6.472;2024-03-25T14:19:31;2.90;;;1.90;;
15363;SDS011;7781;49.690;6.472;2024-03-25T14:21:59;2.70;;;1.73;;
15363;SDS011;7781;49.690;6.472;2024-03-25T14:24:27;7.70;;;2.37;;
15363;SDS011;7781;49.690;6.472;2024-03-25T14:26:54;4.00;;;2.00;;
15363;SDS011;7781;49.690;6.472;2024-03-25T14:29:20;2.70;;;1.97;;
15363;SDS011;7781;49.690;6.472;2024-03-25T14:31:48;4.53;;;2.30;;
15363;SDS011;7781;49.690;6.472;2024-03-25T14:34:14;2.00;;;1.77;;
15363;SDS011;7781;49.690;6.472;2024-03-25T14:36:41;3.33;;;2.10;;
15363;SDS011;7781;49.690;6.472;2024-03-25T14:39:08;4.73;;;1.80;;
15363;SDS011;7781;49.690;6.472;2024-03-25T14:41:38;4.40;;;1.80;;
15363;SDS011;7781;49.690;6.472;2024-03-25T14:44:06;4.83;;;1.80;;
15363;SDS011;7781;49.690;6.472;2024-03-25T14:46:33;3.90;;;2.00;;
15363;SDS011;7781;49.690;6.472;2024-03-25T14:49:02;2.83;;;1.80;;
15363;SDS011;7781;49.690;6.472;2024-03-25T14:51:28;2.77;;;1.57;;
15363;SDS011;7781;49.690;6.472;2024-03-25T14:53:56;6.43;;;1.87;;
15363;SDS011;7781;49.690;6.472;2024-03-25T14:56:22;6.60;;;2.00;;
15363;SDS011;7781;49.690;6.472;2024-03-25T14:58:49;4.40;;;1.90;;
15363;SDS011;7781;49.690;6.472;2024-03-25T15:01:16;4.00;;;2.10;;
15363;SDS011;7781;49.690;6.472;2024-03-25T15:03:43;3.13;;;1.60;;
15363;SDS011;7781;49.690;6.472;2024-03-25T15:06:11;5.20;;;1.83;;
15363;SDS011;7781;49.690;6.472;2024-03-25T15:08:40;3.17;;;1.67;;
15363;SDS011;7781;49.690;6.472;2024-03-25T15:11:07;3.77;;;1.50;;
15363;SDS011;7781;49.690;6.472;2024-03-25T15:13:33;2.40;;;1.47;;
15363;SDS011;7781;49.690;6.472;2024-03-25T15:16:02;3.10;;;2.00;;
15363;SDS011;7781;49.690;6.472;2024-03-25T15:18:30;4.70;;;1.60;;
15363;SDS011;7781;49.690;6.472;2024-03-25T15:20:59;6.00;;;1.60;;
15363;SDS011;7781;49.690;6.472;2024-03-25T15:23:28;3.33;;;1.40;;
15363;SDS011;7781;49.690;6.472;2024-03-25T15:25:55;3.93;;;1.70;;
15363;SDS011;7781;49.690;6.472;2024-03-25T15:28:24;2.23;;;1.40;;
15363;SDS011;7781;49.690;6.472;2024-03-25T15:30:50;4.73;;;1.97;;
15363;SDS011;7781;49.690;6.472;2024-03-25T15:33:20;10.93;;;2.47;;
15363;SDS011;7781;49.690;6.472;2024-03-25T15:35:46;1.20;;;1.10;;